sensor_id;sensor_type;location;lat;lon;timestamp;pressure;altitude;pressure_sealevel;temperature;humidity
45253;BME280;63171;50.520;30.486;2022-12-04T00:00:46;102251.06;;;-4.31;96.31
45253;BME280;63171;50.520;30.486;2022-12-04T00:01:36;102260.16;;;-4.16;96.36
45253;BME280;63171;50.520;30.486;2022-12-04T00:02:26;102256.41;;;-4.25;96.02
45253;BME280;63171;50.520;30.486;2022-12-04T00:03:16;102255.75;;;-4.20;96.48
45253;BME280;63171;50.520;30.486;2022-12-04T00:04:09;102266.38;;;-4.09;96.56
45253;BME280;63171;50.520;30.486;2022-12-04T00:04:59;102267.16;;;-4.11;96.52
45253;BME280;63171;50.520;30.486;2022-12-04T00:05:49;102263.38;;;-4.43;95.92
45253;BME280;63171;50.520;30.486;2022-12-04T00:06:39;102256.63;;;-4.19;96.49
45253;BME280;63171;50.520;30.486;2022-12-04T00:07:30;102248.03;;;-3.97;96.91
45253;BME280;63171;50.520;30.486;2022-12-04T00:08:20;102261.59;;;-4.00;96.46
45253;BME280;63171;50.520;30.486;2022-12-04T00:09:10;102260.50;;;-3.82;96.92
45253;BME280;63171;50.520;30.486;2022-12-04T00:10:00;102265.44;;;-4.11;96.45
45253;BME280;63171;50.520;30.486;2022-12-04T00:10:51;102264.13;;;-4.24;96.47
45253;BME280;63171;50.520;30.486;2022-12-04T00:11:41;102256.56;;;-4.21;96.36
45253;BME280;63171;50.520;30.486;2022-12-04T00:12:33;102251.09;;;-4.30;96.56
45253;BME280;63171;50.520;30.486;2022-12-04T00:13:23;102262.00;;;-4.35;96.12
45253;BME280;63171;50.520;30.486;2022-12-04T00:14:14;102253.34;;;-4.39;96.36
45253;BME280;63171;50.520;30.486;2022-12-04T00:15:08;102274.50;;;-4.43;96.63
45253;BME280;63171;50.520;30.486;2022-12-04T00:15:59;102271.25;;;-4.39;96.69
45253;BME280;63171;50.520;30.486;2022-12-04T00:16:49;102262.22;;;-4.29;96.34
45253;BME280;63171;50.520;30.486;2022-12-04T00:17:40;102262.59;;;-4.19;96.54
45253;BME280;63171;50.520;30.486;2022-12-04T00:18:30;102267.56;;;-4.23;96.52
45253;BME280;63171;50.520;30.486;2022-12-04T00:19:21;102270.59;;;-4.33;96.07
45253;BME280;63171;50.520;30.486;2022-12-04T00:20:11;102263.38;;;-4.43;96.47
45253;BME280;63171;50.520;30.486;2022-12-04T00:21:02;102262.94;;;-4.56;96.04
45253;BME280;63171;50.520;30.486;2022-12-04T00:21:53;102263.16;;;-4.27;96.39
45253;BME280;63171;50.520;30.486;2022-12-04T00:22:44;102263.22;;;-4.26;96.53
45253;BME280;63171;50.520;30.486;2022-12-04T00:23:34;102263.06;;;-4.29;96.55
45253;BME280;63171;50.520;30.486;2022-12-04T00:24:25;102260.72;;;-4.24;96.31
45253;BME280;63171;50.520;30.486;2022-12-04T00:25:15;102267.09;;;-4.13;96.96
45253;BME280;63171;50.520;30.486;2022-12-04T00:26:08;102263.16;;;-4.03;96.49
45253;BME280;63171;50.520;30.486;2022-12-04T00:26:59;102260.06;;;-3.95;96.68
45253;BME280;63171;50.520;30.486;2022-12-04T00:27:49;102259.81;;;-3.77;97.06
45253;BME280;63171;50.520;30.486;2022-12-04T00:28:40;102253.31;;;-3.67;97.20
45253;BME280;63171;50.520;30.486;2022-12-04T00:29:31;102251.28;;;-3.52;97.36
45253;BME280;63171;50.520;30.486;2022-12-04T00:30:22;102257.63;;;-3.41;97.46
45253;BME280;63171;50.520;30.486;2022-12-04T00:31:14;102268.28;;;-3.54;97.16
45253;BME280;63171;50.520;30.486;2022-12-04T00:32:05;102260.63;;;-4.02;96.57
45253;BME280;63171;50.520;30.486;2022-12-04T00:32:55;102263.38;;;-4.43;96.11
45253;BME280;63171;50.520;30.486;2022-12-04T00:33:45;102270.50;;;-4.36;96.28
45253;BME280;63171;50.520;30.486;2022-12-04T00:34:36;102279.00;;;-4.13;96.50
45253;BME280;63171;50.520;30.486;2022-12-04T00:35:26;102265.38;;;-4.36;96.34
45253;BME280;63171;50.520;30.486;2022-12-04T00:36:20;102271.13;;;-4.42;96.31
45253;BME280;63171;50.520;30.486;2022-12-04T00:37:11;102257.66;;;-4.38;96.29
45253;BME280;63171;50.520;30.486;2022-12-04T00:38:01;102262.41;;;-4.25;96.58
45253;BME280;63171;50.520;30.486;2022-12-04T00:38:51;102261.03;;;-4.15;96.66
45253;BME280;63171;50.520;30.486;2022-12-04T00:39:42;102259.03;;;-4.46;96.07
45253;BME280;63171;50.520;30.486;2022-12-04T00:40:32;102275.59;;;-4.36;96.46
45253;BME280;63171;50.520;30.486;2022-12-04T00:41:25;102267.13;;;-4.58;95.87
45253;BME280;63171;50.520;30.486;2022-12-04T00:42:14;102249.66;;;-4.23;96.52
45253;BME280;63171;50.520;30.486;2022-12-04T00:43:05;102266.09;;;-3.93;96.97
45253;BME280;63171;50.520;30.486;2022-12-04T00:43:55;102279.44;;;-3.77;97.09
45253;BME280;63171;50.520;30.486;2022-12-04T00:44:46;102266.56;;;-4.03;96.71
45253;BME280;63171;50.520;30.486;2022-12-04T00:45:37;102265.59;;;-4.30;96.41
45253;BME280;63171;50.520;30.486;2022-12-04T00:46:27;102260.97;;;-3.93;97.04
45253;BME280;63171;50.520;30.486;2022-12-04T00:47:18;102265.06;;;-3.74;96.98
45253;BME280;63171;50.520;30.486;2022-12-04T00:48:08;102269.44;;;-3.95;97.03
45253;BME280;63171;50.520;30.486;2022-12-04T00:48:59;102270.06;;;-4.01;96.66
45253;BME280;63171;50.520;30.486;2022-12-04T00:49:51;102262.41;;;-4.25;96.49
45253;BME280;63171;50.520;30.486;2022-12-04T00:50:41;102260.91;;;-4.18;96.82
45253;BME280;63171;50.520;30.486;2022-12-04T00:51:31;102266.47;;;-3.82;96.94
45253;BME280;63171;50.520;30.486;2022-12-04T00:52:22;102258.44;;;-3.67;97.17
45253;BME280;63171;50.520;30.486;2022-12-04T00:53:12;102264.19;;;-3.98;96.77
45253;BME280;63171;50.520;30.486;2022-12-04T00:54:03;102262.00;;;-3.88;96.89
45253;BME280;63171;50.520;30.486;2022-12-04T00:54:53;102271.16;;;-3.70;97.07
45253;BME280;63171;50.520;30.486;2022-12-04T00:55:44;102262.03;;;-3.62;97.07
45253;BME280;63171;50.520;30.486;2022-12-04T00:56:34;102259.38;;;-3.40;97.37
45253;BME280;63171;50.520;30.486;2022-12-04T00:57:24;102259.78;;;-3.28;97.55
45253;BME280;63171;50.520;30.486;2022-12-04T00:58:14;102257.78;;;-3.62;96.92
45253;BME280;63171;50.520;30.486;2022-12-04T00:59:05;102258.84;;;-3.80;96.71
45253;BME280;63171;50.520;30.486;2022-12-04T00:59:55;102266.97;;;-3.92;96.53
45253;BME280;63171;50.520;30.486;2022-12-04T01:02:55;102263.00;;;-4.08;96.62
45253;BME280;63171;50.520;30.486;2022-12-04T01:03:46;102258.59;;;-4.12;96.29
45253;BME280;63171;50.520;30.486;2022-12-04T01:04:36;102275.03;;;-4.05;96.61
45253;BME280;63171;50.520;30.486;2022-12-04T01:05:26;102264.19;;;-4.22;96.08
45253;BME280;63171;50.520;30.486;2022-12-04T01:06:18;102276.97;;;-4.22;96.31
45253;BME280;63171;50.520;30.486;2022-12-04T01:07:10;102268.69;;;-4.15;96.20
45253;BME280;63171;50.520;30.486;2022-12-04T01:07:59;102262.06;;;-4.34;96.51
45253;BME280;63171;50.520;30.486;2022-12-04T01:08:51;102263.69;;;-4.36;95.98
45253;BME280;63171;50.520;30.486;2022-12-04T01:09:41;102275.25;;;-4.46;95.90
45253;BME280;63171;50.520;30.486;2022-12-04T01:10:32;102264.50;;;-4.37;95.82
45253;BME280;63171;50.520;30.486;2022-12-04T01:11:23;102262.97;;;-4.32;96.50
45253;BME280;63171;50.520;30.486;2022-12-04T01:12:14;102260.38;;;-4.33;95.90
45253;BME280;63171;50.520;30.486;2022-12-04T01:13:04;102261.53;;;-4.25;96.57
45253;BME280;63171;50.520;30.486;2022-12-04T01:13:55;102272.63;;;-4.47;96.08
45253;BME280;63171;50.520;30.486;2022-12-04T01:14:45;102268.03;;;-4.56;95.96
45253;BME280;63171;50.520;30.486;2022-12-04T01:15:37;102275.72;;;-4.56;95.72
45253;BME280;63171;50.520;30.486;2022-12-04T01:16:30;102261.44;;;-4.51;96.04
45253;BME280;63171;50.520;30.486;2022-12-04T01:17:21;102267.78;;;-4.63;96.08
45253;BME280;63171;50.520;30.486;2022-12-04T01:18:13;102266.72;;;-4.46;95.97
45253;BME280;63171;50.520;30.486;2022-12-04T01:19:05;102278.06;;;-4.39;96.23
45253;BME280;63171;50.520;30.486;2022-12-04T01:19:55;102270.88;;;-4.26;96.35
45253;BME280;63171;50.520;30.486;2022-12-04T01:20:46;102260.25;;;-4.36;96.30
45253;BME280;63171;50.520;30.486;2022-12-04T01:21:38;102259.13;;;-4.43;96.33
45253;BME280;63171;50.520;30.486;2022-12-04T01:22:29;102264.16;;;-4.46;96.27
45253;BME280;63171;50.520;30.486;2022-12-04T01:23:19;102257.00;;;-4.32;96.33
45253;BME280;63171;50.520;30.486;2022-12-04T01:24:09;102268.00;;;-4.11;96.55
45253;BME280;63171;50.520;30.486;2022-12-04T01:24:59;102259.84;;;-4.25;96.19
45253;BME280;63171;50.520;30.486;2022-12-04T01:25:51;102270.63;;;-4.09;96.58
45253;BME280;63171;50.520;30.486;2022-12-04T01:26:42;102268.22;;;-4.05;96.56
45253;BME280;63171;50.520;30.486;2022-12-04T01:27:33;102270.06;;;-4.25;95.90
45253;BME280;63171;50.520;30.486;2022-12-04T01:28:24;102282.03;;;-4.24;96.47
45253;BME280;63171;50.520;30.486;2022-12-04T01:29:14;102268.56;;;-4.42;96.28
45253;BME280;63171;50.520;30.486;2022-12-04T01:30:07;102289.84;;;-4.43;96.15
45253;BME280;63171;50.520;30.486;2022-12-04T01:30:59;102266.88;;;-4.41;96.23
45253;BME280;63171;50.520;30.486;2022-12-04T01:31:49;102276.41;;;-4.37;96.17
45253;BME280;63171;50.520;30.486;2022-12-04T01:32:40;102276.25;;;-4.64;96.16
45253;BME280;63171;50.520;30.486;2022-12-04T01:33:32;102267.13;;;-4.58;96.38
45253;BME280;63171;50.520;30.486;2022-12-04T01:34:23;102266.13;;;-4.39;96.43
45253;BME280;63171;50.520;30.486;2022-12-04T01:35:13;102264.03;;;-4.49;96.39
45253;BME280;63171;50.520;30.486;2022-12-04T01:36:06;102278.22;;;-4.57;96.17
45253;BME280;63171;50.520;30.486;2022-12-04T01:36:56;102280.09;;;-4.53;96.50
45253;BME280;63171;50.520;30.486;2022-12-04T01:37:46;102277.53;;;-4.76;95.94
45253;BME280;63171;50.520;30.486;2022-12-04T01:38:37;102268.16;;;-4.75;96.02
45253;BME280;63171;50.520;30.486;2022-12-04T01:39:28;102269.16;;;-4.49;96.40
45253;BME280;63171;50.520;30.486;2022-12-04T01:40:19;102264.09;;;-4.48;96.69
45253;BME280;63171;50.520;30.486;2022-12-04T01:41:09;102274.38;;;-4.46;96.62
45253;BME280;63171;50.520;30.486;2022-12-04T01:42:00;102273.75;;;-4.40;96.58
45253;BME280;63171;50.520;30.486;2022-12-04T01:42:50;102263.16;;;-4.27;96.81
45253;BME280;63171;50.520;30.486;2022-12-04T01:43:41;102269.88;;;-4.29;96.69
45253;BME280;63171;50.520;30.486;2022-12-04T01:44:31;102282.41;;;-4.37;96.39
45253;BME280;63171;50.520;30.486;2022-12-04T01:45:41;102284.66;;;-4.22;97.07
45253;BME280;63171;50.520;30.486;2022-12-04T01:46:31;102278.69;;;-3.99;97.01
45253;BME280;63171;50.520;30.486;2022-12-04T01:47:21;102268.59;;;-4.18;97.00
45253;BME280;63171;50.520;30.486;2022-12-04T01:48:18;102265.47;;;-4.33;96.75
45253;BME280;63171;50.520;30.486;2022-12-04T01:49:14;102290.13;;;-4.58;96.49
45253;BME280;63171;50.520;30.486;2022-12-04T01:50:07;102273.50;;;-4.69;96.27
45253;BME280;63171;50.520;30.486;2022-12-04T01:51:03;102260.16;;;-4.62;96.47
45253;BME280;63171;50.520;30.486;2022-12-04T01:51:56;102261.41;;;-4.73;96.19
45253;BME280;63171;50.520;30.486;2022-12-04T01:52:47;102268.53;;;-4.66;96.60
45253;BME280;63171;50.520;30.486;2022-12-04T01:53:41;102258.56;;;-4.58;96.54
45253;BME280;63171;50.520;30.486;2022-12-04T01:54:36;102280.28;;;-4.69;96.58
45253;BME280;63171;50.520;30.486;2022-12-04T01:55:29;102288.78;;;-4.70;96.55
45253;BME280;63171;50.520;30.486;2022-12-04T01:56:24;102264.28;;;-4.65;96.62
45253;BME280;63171;50.520;30.486;2022-12-04T01:57:17;102269.06;;;-4.52;97.01
45253;BME280;63171;50.520;30.486;2022-12-04T01:58:08;102267.31;;;-4.29;97.23
45253;BME280;63171;50.520;30.486;2022-12-04T01:58:58;102267.97;;;-4.35;97.01
45253;BME280;63171;50.520;30.486;2022-12-04T01:59:52;102265.88;;;-4.45;97.07
45253;BME280;63171;50.520;30.486;2022-12-04T02:00:43;102266.34;;;-4.33;97.04
45253;BME280;63171;50.520;30.486;2022-12-04T02:01:40;102263.78;;;-4.33;97.21
45253;BME280;63171;50.520;30.486;2022-12-04T02:02:35;102270.03;;;-4.26;97.63
45253;BME280;63171;50.520;30.486;2022-12-04T02:03:26;102274.31;;;-4.01;97.52
45253;BME280;63171;50.520;30.486;2022-12-04T02:04:18;102264.19;;;-4.22;97.41
45253;BME280;63171;50.520;30.486;2022-12-04T02:05:12;102267.16;;;-4.11;97.58
45253;BME280;63171;50.520;30.486;2022-12-04T02:06:02;102266.91;;;-4.18;97.56
45253;BME280;63171;50.520;30.486;2022-12-04T02:06:53;102279.19;;;-4.31;97.74
45253;BME280;63171;50.520;30.486;2022-12-04T02:07:44;102270.59;;;-4.33;97.19
45253;BME280;63171;50.520;30.486;2022-12-04T02:08:37;102278.50;;;-4.50;97.53
45253;BME280;63171;50.520;30.486;2022-12-04T02:09:28;102266.28;;;-4.57;97.19
45253;BME280;63171;50.520;30.486;2022-12-04T02:10:19;102264.91;;;-4.49;97.38
45253;BME280;63171;50.520;30.486;2022-12-04T02:11:24;102257.88;;;-4.54;97.43
45253;BME280;63171;50.520;30.486;2022-12-04T02:12:21;102282.97;;;-4.22;97.60
45253;BME280;63171;50.520;30.486;2022-12-04T02:13:16;102278.81;;;-4.64;97.20
45253;BME280;63171;50.520;30.486;2022-12-04T02:14:18;102284.72;;;-4.88;97.07
45253;BME280;63171;50.520;30.486;2022-12-04T02:15:15;102264.75;;;-4.76;97.30
45253;BME280;63171;50.520;30.486;2022-12-04T02:16:13;102262.97;;;-4.54;97.63
45253;BME280;63171;50.520;30.486;2022-12-04T02:17:15;102265.25;;;-4.62;97.27
45253;BME280;63171;50.520;30.486;2022-12-04T02:18:16;102263.28;;;-4.47;97.80
45253;BME280;63171;50.520;30.486;2022-12-04T02:19:33;102275.59;;;-4.36;97.75
45253;BME280;63171;50.520;30.486;2022-12-04T02:20:32;102282.19;;;-4.65;97.51
45253;BME280;63171;50.520;30.486;2022-12-04T02:21:29;102283.63;;;-4.72;97.50
45253;BME280;63171;50.520;30.486;2022-12-04T02:22:29;102274.47;;;-4.67;97.71
45253;BME280;63171;50.520;30.486;2022-12-04T02:23:31;102269.44;;;-4.64;97.86
45253;BME280;63171;50.520;30.486;2022-12-04T02:24:40;102271.97;;;-4.86;97.29
45253;BME280;63171;50.520;30.486;2022-12-04T02:25:37;102283.34;;;-4.80;97.59
45253;BME280;63171;50.520;30.486;2022-12-04T02:26:42;102288.53;;;-4.99;97.49
45253;BME280;63171;50.520;30.486;2022-12-04T02:28:01;102295.97;;;-4.83;97.79
45253;BME280;63171;50.520;30.486;2022-12-04T02:28:55;102306.94;;;-4.85;97.84
45253;BME280;63171;50.520;30.486;2022-12-04T02:29:53;102308.41;;;-4.92;97.86
45253;BME280;63171;50.520;30.486;2022-12-04T02:30:47;102297.47;;;-4.88;97.68
45253;BME280;63171;50.520;30.486;2022-12-04T02:31:44;102293.50;;;-5.23;97.50
45253;BME280;63171;50.520;30.486;2022-12-04T02:32:43;102297.13;;;-5.18;97.64
45253;BME280;63171;50.520;30.486;2022-12-04T02:33:37;102286.09;;;-5.17;97.81
45253;BME280;63171;50.520;30.486;2022-12-04T02:34:34;102311.78;;;-4.93;98.06
45253;BME280;63171;50.520;30.486;2022-12-04T02:35:30;102290.31;;;-4.76;98.17
45253;BME280;63171;50.520;30.486;2022-12-04T02:36:26;102288.25;;;-4.84;98.41
45253;BME280;63171;50.520;30.486;2022-12-04T02:37:20;102314.25;;;-4.94;98.20
45253;BME280;63171;50.520;30.486;2022-12-04T02:38:22;102302.28;;;-4.95;98.04
45253;BME280;63171;50.520;30.486;2022-12-04T02:39:19;102304.22;;;-5.11;97.78
45253;BME280;63171;50.520;30.486;2022-12-04T02:40:18;102299.13;;;-4.90;98.47
45253;BME280;63171;50.520;30.486;2022-12-04T02:41:13;102301.34;;;-4.97;97.89
45253;BME280;63171;50.520;30.486;2022-12-04T02:42:10;102311.66;;;-5.17;97.84
45253;BME280;63171;50.520;30.486;2022-12-04T02:43:08;102292.84;;;-5.19;98.24
45253;BME280;63171;50.520;30.486;2022-12-04T02:44:06;102298.78;;;-4.97;98.93
45253;BME280;63171;50.520;30.486;2022-12-04T02:45:01;102295.63;;;-5.13;98.24
45253;BME280;63171;50.520;30.486;2022-12-04T02:45:58;102296.03;;;-4.81;98.87
45253;BME280;63171;50.520;30.486;2022-12-04T02:46:53;102285.63;;;-4.86;98.79
45253;BME280;63171;50.520;30.486;2022-12-04T02:47:45;102271.19;;;-4.63;99.15
45253;BME280;63171;50.520;30.486;2022-12-04T02:48:38;102277.66;;;-4.50;99.22
45253;BME280;63171;50.520;30.486;2022-12-04T02:49:33;102278.34;;;-4.77;98.93
45253;BME280;63171;50.520;30.486;2022-12-04T02:50:25;102286.56;;;-4.84;98.94
45253;BME280;63171;50.520;30.486;2022-12-04T02:51:20;102285.59;;;-4.65;99.20
45253;BME280;63171;50.520;30.486;2022-12-04T02:52:13;102276.19;;;-4.66;99.03
45253;BME280;63171;50.520;30.486;2022-12-04T02:53:08;102278.56;;;-4.70;99.34
45253;BME280;63171;50.520;30.486;2022-12-04T02:54:04;102286.41;;;-4.43;99.45
45253;BME280;63171;50.520;30.486;2022-12-04T02:55:02;102285.13;;;-4.55;99.52
45253;BME280;63171;50.520;30.486;2022-12-04T02:55:55;102277.75;;;-4.47;99.55
45253;BME280;63171;50.520;30.486;2022-12-04T02:56:49;102275.72;;;-4.56;99.33
45253;BME280;63171;50.520;30.486;2022-12-04T02:57:43;102286.59;;;-4.39;99.89
45253;BME280;63171;50.520;30.486;2022-12-04T02:58:39;102289.78;;;-4.44;99.83
45253;BME280;63171;50.520;30.486;2022-12-04T02:59:35;102286.53;;;-4.40;99.58
45253;BME280;63171;50.520;30.486;2022-12-04T03:00:27;102293.50;;;-4.59;99.58
45253;BME280;63171;50.520;30.486;2022-12-04T03:01:22;102283.84;;;-4.43;99.89
45253;BME280;63171;50.520;30.486;2022-12-04T03:02:17;102282.41;;;-4.37;100.00
45253;BME280;63171;50.520;30.486;2022-12-04T03:03:14;102276.69;;;-4.30;99.93
45253;BME280;63171;50.520;30.486;2022-12-04T03:04:10;102290.53;;;-4.47;99.55
45253;BME280;63171;50.520;30.486;2022-12-04T03:05:07;102275.09;;;-4.50;99.85
45253;BME280;63171;50.520;30.486;2022-12-04T03:06:00;102284.78;;;-4.64;99.73
45253;BME280;63171;50.520;30.486;2022-12-04T03:06:55;102275.06;;;-4.72;99.52
45253;BME280;63171;50.520;30.486;2022-12-04T03:07:49;102287.84;;;-4.72;99.29
45253;BME280;63171;50.520;30.486;2022-12-04T03:08:44;102288.56;;;-4.77;99.37
45253;BME280;63171;50.520;30.486;2022-12-04T03:09:39;102291.50;;;-4.88;99.70
45253;BME280;63171;50.520;30.486;2022-12-04T03:10:35;102288.25;;;-4.84;99.47
45253;BME280;63171;50.520;30.486;2022-12-04T03:11:29;102293.34;;;-4.84;99.39
45253;BME280;63171;50.520;30.486;2022-12-04T03:12:24;102295.81;;;-4.87;99.68
45253;BME280;63171;50.520;30.486;2022-12-04T03:13:19;102293.25;;;-4.87;99.41
45253;BME280;63171;50.520;30.486;2022-12-04T03:14:16;102281.88;;;-4.73;99.70
45253;BME280;63171;50.520;30.486;2022-12-04T03:15:11;102284.75;;;-4.65;100.00
45253;BME280;63171;50.520;30.486;2022-12-04T03:16:06;102281.78;;;-4.54;100.00
45253;BME280;63171;50.520;30.486;2022-12-04T03:17:00;102285.13;;;-4.77;99.41
45253;BME280;63171;50.520;30.486;2022-12-04T03:17:55;102295.19;;;-5.02;99.52
45253;BME280;63171;50.520;30.486;2022-12-04T03:18:49;102301.84;;;-5.27;99.34
45253;BME280;63171;50.520;30.486;2022-12-04T03:19:45;102296.50;;;-5.12;99.24
45253;BME280;63171;50.520;30.486;2022-12-04T03:20:37;102287.09;;;-4.92;100.00
45253;BME280;63171;50.520;30.486;2022-12-04T03:21:32;102297.97;;;-4.76;100.00
45253;BME280;63171;50.520;30.486;2022-12-04T03:22:24;102285.41;;;-4.69;99.97
45253;BME280;63171;50.520;30.486;2022-12-04T03:23:19;102302.97;;;-4.99;99.66
45253;BME280;63171;50.520;30.486;2022-12-04T03:24:15;102296.56;;;-5.11;99.27
45253;BME280;63171;50.520;30.486;2022-12-04T03:25:08;102288.84;;;-5.12;99.65
45253;BME280;63171;50.520;30.486;2022-12-04T03:26:01;102284.03;;;-5.04;99.52
45253;BME280;63171;50.520;30.486;2022-12-04T03:27:00;102302.38;;;-4.94;99.80
45253;BME280;63171;50.520;30.486;2022-12-04T03:27:58;102298.69;;;-5.00;99.87
45253;BME280;63171;50.520;30.486;2022-12-04T03:28:53;102296.66;;;-4.87;100.00
45253;BME280;63171;50.520;30.486;2022-12-04T03:29:51;102291.81;;;-5.22;99.38
45253;BME280;63171;50.520;30.486;2022-12-04T03:30:48;102304.03;;;-5.15;99.56
45253;BME280;63171;50.520;30.486;2022-12-04T03:31:43;102290.97;;;-5.02;100.00
45253;BME280;63171;50.520;30.486;2022-12-04T03:32:39;102302.72;;;-5.26;99.98
45253;BME280;63171;50.520;30.486;2022-12-04T03:33:37;102275.31;;;-4.89;100.00
45253;BME280;63171;50.520;30.486;2022-12-04T03:34:32;102287.47;;;-4.61;100.00
45253;BME280;63171;50.520;30.486;2022-12-04T03:35:26;102284.09;;;-4.37;100.00
45253;BME280;63171;50.520;30.486;2022-12-04T03:36:21;102285.53;;;-4.22;100.00
45253;BME280;63171;50.520;30.486;2022-12-04T03:37:16;102280.09;;;-4.07;100.00
45253;BME280;63171;50.520;30.486;2022-12-04T03:38:14;102284.59;;;-4.24;100.00
45253;BME280;63171;50.520;30.486;2022-12-04T03:39:11;102287.56;;;-4.13;100.00
45253;BME280;63171;50.520;30.486;2022-12-04T03:40:13;102287.91;;;-4.02;100.00
45253;BME280;63171;50.520;30.486;2022-12-04T03:41:11;102290.72;;;-3.96;100.00
45253;BME280;63171;50.520;30.486;2022-12-04T03:42:07;102284.72;;;-3.97;100.00
45253;BME280;63171;50.520;30.486;2022-12-04T03:43:05;102291.44;;;-4.00;100.00
45253;BME280;63171;50.520;30.486;2022-12-04T03:44:04;102297.41;;;-4.00;100.00
45253;BME280;63171;50.520;30.486;2022-12-04T03:45:02;102294.72;;;-4.27;100.00
45253;BME280;63171;50.520;30.486;2022-12-04T03:45:57;102287.94;;;-4.26;100.00
45253;BME280;63171;50.520;30.486;2022-12-04T03:46:53;102287.16;;;-4.24;100.00
45253;BME280;63171;50.520;30.486;2022-12-04T03:47:51;102295.09;;;-4.16;100.00
45253;BME280;63171;50.520;30.486;2022-12-04T03:48:45;102300.63;;;-4.05;100.00
45253;BME280;63171;50.520;30.486;2022-12-04T03:49:45;102307.44;;;-4.28;100.00
45253;BME280;63171;50.520;30.486;2022-12-04T03:50:38;102305.72;;;-4.52;100.00
45253;BME280;63171;50.520;30.486;2022-12-04T03:51:35;102300.56;;;-4.53;100.00
45253;BME280;63171;50.520;30.486;2022-12-04T03:52:29;102297.19;;;-4.52;100.00
45253;BME280;63171;50.520;30.486;2022-12-04T03:53:29;102321.34;;;-4.87;99.79
45253;BME280;63171;50.520;30.486;2022-12-04T03:54:26;102329.97;;;-5.06;99.49
45253;BME280;63171;50.520;30.486;2022-12-04T03:55:23;102326.56;;;-5.07;99.81
45253;BME280;63171;50.520;30.486;2022-12-04T03:56:17;102329.16;;;-5.26;99.71
45253;BME280;63171;50.520;30.486;2022-12-04T03:57:13;102312.91;;;-5.07;99.70
45253;BME280;63171;50.520;30.486;2022-12-04T03:58:08;102314.31;;;-5.14;99.42
45253;BME280;63171;50.520;30.486;2022-12-04T03:59:05;102304.09;;;-5.14;99.83
45253;BME280;63171;50.520;30.486;2022-12-04T04:00:03;102317.31;;;-5.03;99.71
45253;BME280;63171;50.520;30.486;2022-12-04T04:00:56;102306.84;;;-5.30;99.27
45253;BME280;63171;50.520;30.486;2022-12-04T04:01:47;102298.69;;;-5.00;100.00
45253;BME280;63171;50.520;30.486;2022-12-04T04:02:42;102297.75;;;-5.23;99.75
45253;BME280;63171;50.520;30.486;2022-12-04T04:03:36;102320.88;;;-4.99;99.84
45253;BME280;63171;50.520;30.486;2022-12-04T04:04:31;102301.22;;;-5.21;100.00
45253;BME280;63171;50.520;30.486;2022-12-04T04:05:24;102311.94;;;-5.09;99.98
45253;BME280;63171;50.520;30.486;2022-12-04T04:06:18;102306.16;;;-5.05;99.91
45253;BME280;63171;50.520;30.486;2022-12-04T04:07:13;102308.84;;;-5.02;100.00
45253;BME280;63171;50.520;30.486;2022-12-04T04:08:08;102307.97;;;-5.23;99.78
45253;BME280;63171;50.520;30.486;2022-12-04T04:09:15;102311.25;;;-5.47;99.81
45253;BME280;63171;50.520;30.486;2022-12-04T04:10:13;102326.00;;;-5.20;100.00
45253;BME280;63171;50.520;30.486;2022-12-04T04:11:09;102315.50;;;-5.26;99.76
45253;BME280;63171;50.520;30.486;2022-12-04T04:12:04;102330.44;;;-5.36;99.73
45253;BME280;63171;50.520;30.486;2022-12-04T04:12:59;102322.16;;;-5.30;100.00
45253;BME280;63171;50.520;30.486;2022-12-04T04:14:13;102310.75;;;-5.59;99.52
45253;BME280;63171;50.520;30.486;2022-12-04T04:15:25;102312.25;;;-5.22;100.00
45253;BME280;63171;50.520;30.486;2022-12-04T04:16:36;102318.50;;;-5.16;100.00
45253;BME280;63171;50.520;30.486;2022-12-04T04:17:46;102313.78;;;-5.07;100.00
45253;BME280;63171;50.520;30.486;2022-12-04T04:18:53;102315.94;;;-5.16;100.00
45253;BME280;63171;50.520;30.486;2022-12-04T04:20:07;102308.41;;;-5.13;100.00
45253;BME280;63171;50.520;30.486;2022-12-04T04:21:20;102323.13;;;-5.07;100.00
45253;BME280;63171;50.520;30.486;2022-12-04T04:22:30;102304.28;;;-4.88;100.00
45253;BME280;63171;50.520;30.486;2022-12-04T04:23:42;102316.63;;;-5.20;100.00
45253;BME280;63171;50.520;30.486;2022-12-04T04:24:52;102311.78;;;-5.14;100.00
45253;BME280;63171;50.520;30.486;2022-12-04T04:25:46;102316.44;;;-5.24;100.00
45253;BME280;63171;50.520;30.486;2022-12-04T04:26:41;102324.88;;;-5.06;100.00
45253;BME280;63171;50.520;30.486;2022-12-04T04:27:33;102314.88;;;-5.00;100.00
45253;BME280;63171;50.520;30.486;2022-12-04T04:28:32;102323.34;;;-5.01;100.00
45253;BME280;63171;50.520;30.486;2022-12-04T04:29:23;102321.50;;;-5.05;100.00
45253;BME280;63171;50.520;30.486;2022-12-04T04:30:12;102313.25;;;-4.98;100.00
45253;BME280;63171;50.520;30.486;2022-12-04T04:31:09;102315.19;;;-4.92;100.00
45253;BME280;63171;50.520;30.486;2022-12-04T04:32:04;102327.03;;;-5.15;100.00
45253;BME280;63171;50.520;30.486;2022-12-04T04:33:04;102312.34;;;-5.21;100.00
45253;BME280;63171;50.520;30.486;2022-12-04T04:33:58;102315.16;;;-4.94;100.00
45253;BME280;63171;50.520;30.486;2022-12-04T04:34:58;102306.28;;;-4.59;100.00
45253;BME280;63171;50.520;30.486;2022-12-04T04:35:52;102312.81;;;-5.09;100.00
45253;BME280;63171;50.520;30.486;2022-12-04T04:36:53;102319.25;;;-4.97;100.00
45253;BME280;63171;50.520;30.486;2022-12-04T04:37:52;102308.47;;;-4.90;100.00
45253;BME280;63171;50.520;30.486;2022-12-04T04:38:52;102316.06;;;-5.13;100.00
45253;BME280;63171;50.520;30.486;2022-12-04T04:39:53;102312.00;;;-5.08;100.00
45253;BME280;63171;50.520;30.486;2022-12-04T04:40:53;102315.50;;;-4.85;100.00
45253;BME280;63171;50.520;30.486;2022-12-04T04:41:48;102309.53;;;-5.27;100.00
45253;BME280;63171;50.520;30.486;2022-12-04T04:42:44;102315.84;;;-5.38;100.00